createdAt,value
2022-07-31T00:00:20.764Z,2.88
2022-07-31T00:02:48.251Z,2.67
2022-07-31T00:05:15.720Z,2.85
2022-07-31T00:07:43.422Z,2.92
2022-07-31T00:10:11.029Z,3.03
2022-07-31T00:12:38.524Z,3.03
2022-07-31T00:15:10.378Z,2.92
2022-07-31T00:17:38.620Z,2.75
2022-07-31T00:20:06.901Z,2.92
2022-07-31T00:22:35.852Z,2.90
2022-07-31T00:25:03.386Z,3.15
2022-07-31T00:27:30.935Z,3.15
2022-07-31T00:29:58.466Z,3.15
2022-07-31T00:32:27.282Z,3.45
2022-07-31T00:34:54.843Z,3.30
2022-07-31T00:37:22.371Z,3.45
2022-07-31T00:39:50.422Z,2.97
2022-07-31T00:42:18.465Z,3.15
2022-07-31T00:44:47.928Z,3.00
2022-07-31T00:47:16.102Z,3.00
2022-07-31T00:49:45.247Z,2.67
2022-07-31T00:52:13.013Z,3.03
2022-07-31T00:54:40.879Z,2.80
2022-07-31T00:57:08.391Z,3.10
2022-07-31T00:59:35.916Z,3.53
2022-07-31T01:02:03.594Z,3.33
2022-07-31T01:04:31.438Z,3.33
2022-07-31T01:07:01.672Z,3.30
2022-07-31T01:09:29.869Z,3.38
2022-07-31T01:12:00.984Z,3.47
2022-07-31T01:14:29.729Z,3.35
2022-07-31T01:16:58.910Z,3.70
2022-07-31T01:19:42.179Z,3.70
2022-07-31T01:22:34.189Z,3.10
2022-07-31T01:25:05.525Z,3.80
2022-07-31T01:30:03.834Z,3.30
2022-07-31T01:32:35.531Z,4.35
2022-07-31T01:35:04.975Z,4.03
2022-07-31T01:37:34.172Z,3.90
2022-07-31T01:40:04.213Z,3.80
2022-07-31T01:42:32.569Z,4.07
2022-07-31T01:45:01.915Z,4.47
2022-07-31T01:47:32.059Z,4.00
2022-07-31T01:50:01.546Z,4.10
2022-07-31T01:52:30.402Z,4.05
2022-07-31T01:54:59.193Z,4.13
2022-07-31T01:57:27.366Z,4.20
2022-07-31T01:59:56.475Z,4.15
2022-07-31T02:02:24.647Z,3.95
2022-07-31T02:04:56.182Z,4.18
2022-07-31T02:07:24.068Z,4.22
2022-07-31T02:09:58.502Z,4.20
2022-07-31T02:12:33.040Z,4.00
2022-07-31T02:15:02.215Z,4.05
2022-07-31T02:17:29.791Z,4.28
2022-07-31T02:20:00.774Z,4.40
2022-07-31T02:22:29.364Z,4.13
2022-07-31T02:24:56.936Z,4.88
2022-07-31T02:27:54.041Z,4.63
2022-07-31T02:30:13.606Z,4.35
2022-07-31T02:32:41.896Z,4.63
2022-07-31T02:35:10.967Z,4.40
2022-07-31T02:37:39.689Z,4.22
2022-07-31T02:40:08.874Z,4.72
2022-07-31T02:42:36.965Z,4.65
2022-07-31T02:45:04.746Z,4.53
2022-07-31T02:47:33.084Z,4.13
2022-07-31T02:50:00.749Z,4.13
2022-07-31T02:52:29.917Z,3.95
2022-07-31T02:54:58.276Z,4.80
2022-07-31T02:57:25.831Z,4.53
2022-07-31T02:59:53.463Z,4.18
2022-07-31T03:02:21.280Z,3.88
2022-07-31T03:04:48.852Z,5.28
2022-07-31T03:07:17.514Z,4.47
2022-07-31T03:09:47.497Z,4.65
2022-07-31T03:12:14.967Z,4.32
2022-07-31T03:14:42.729Z,4.65
2022-07-31T03:17:10.386Z,4.53
2022-07-31T03:19:38.382Z,4.05
2022-07-31T03:22:06.385Z,4.40
2022-07-31T03:24:34.191Z,4.53
2022-07-31T03:27:03.792Z,4.18
2022-07-31T03:29:42.940Z,4.00
2022-07-31T03:32:11.091Z,4.55
2022-07-31T03:34:38.664Z,4.18
2022-07-31T03:37:06.133Z,4.53
2022-07-31T03:39:33.712Z,4.75
2022-07-31T03:42:02.502Z,5.30
2022-07-31T03:44:32.624Z,5.80
2022-07-31T03:47:00.476Z,5.18
2022-07-31T03:49:28.294Z,5.55
2022-07-31T03:51:55.977Z,6.13
2022-07-31T03:54:23.890Z,5.90
2022-07-31T03:56:52.174Z,6.70
2022-07-31T03:59:20.420Z,6.85
2022-07-31T04:01:56.798Z,6.53
2022-07-31T04:04:25.925Z,6.25
2022-07-31T04:06:53.605Z,6.13
2022-07-31T04:09:21.974Z,6.38
2022-07-31T04:11:49.537Z,6.57
2022-07-31T04:14:17.211Z,5.78
2022-07-31T04:16:44.672Z,5.65
2022-07-31T04:19:13.583Z,6.25
2022-07-31T04:21:41.249Z,5.85
2022-07-31T04:24:08.967Z,5.82
2022-07-31T04:26:36.438Z,5.68
2022-07-31T04:29:04.179Z,6.13
2022-07-31T04:31:31.704Z,5.47
2022-07-31T04:33:59.209Z,5.63
2022-07-31T04:36:30.054Z,5.53
2022-07-31T04:38:58.484Z,5.47
2022-07-31T04:41:26.022Z,5.18
2022-07-31T04:43:53.637Z,5.35
2022-07-31T04:46:21.267Z,5.45
2022-07-31T04:48:49.147Z,5.38
2022-07-31T04:51:17.777Z,5.43
2022-07-31T04:53:46.699Z,6.18
2022-07-31T04:56:32.132Z,5.30
2022-07-31T04:58:59.956Z,5.85
2022-07-31T05:01:27.760Z,5.78
2022-07-31T05:03:55.314Z,5.63
2022-07-31T05:06:22.809Z,5.72
2022-07-31T05:08:51.696Z,5.82
2022-07-31T05:11:24.859Z,5.78
2022-07-31T05:13:52.480Z,5.57
2022-07-31T05:16:20.113Z,5.65
2022-07-31T05:18:47.975Z,5.55
2022-07-31T05:21:16.019Z,6.28
2022-07-31T05:23:44.233Z,5.45
2022-07-31T05:26:13.235Z,6.00
2022-07-31T05:28:41.063Z,5.38
2022-07-31T05:31:10.985Z,5.80
2022-07-31T05:33:38.481Z,6.05
2022-07-31T05:36:06.480Z,6.13
2022-07-31T05:38:34.073Z,5.47
2022-07-31T05:41:01.725Z,6.13
2022-07-31T05:43:30.579Z,6.18
2022-07-31T05:45:58.080Z,6.30
2022-07-31T05:48:25.841Z,5.97
2022-07-31T05:50:53.411Z,6.60
2022-07-31T05:53:21.077Z,6.50
2022-07-31T05:55:49.161Z,5.78
2022-07-31T05:58:17.363Z,6.28
2022-07-31T06:00:47.285Z,5.85
2022-07-31T06:03:15.434Z,6.00
2022-07-31T06:05:43.233Z,5.80
2022-07-31T06:08:10.917Z,5.35
2022-07-31T06:10:38.519Z,5.63
2022-07-31T06:13:06.625Z,5.40
2022-07-31T06:15:36.600Z,6.03
2022-07-31T06:18:05.852Z,5.53
2022-07-31T06:20:33.481Z,5.50
2022-07-31T06:23:14.699Z,5.40
2022-07-31T06:25:52.522Z,5.20
2022-07-31T06:28:20.190Z,5.43
2022-07-31T06:30:56.591Z,5.32
2022-07-31T06:33:37.569Z,4.95
2022-07-31T06:36:05.501Z,5.07
2022-07-31T06:38:32.997Z,5.50
2022-07-31T06:41:00.712Z,5.38
2022-07-31T06:43:28.228Z,5.30
2022-07-31T06:45:55.732Z,4.82
2022-07-31T06:48:24.964Z,5.22
2022-07-31T06:51:14.550Z,4.90
2022-07-31T06:53:43.415Z,4.80
2022-07-31T06:56:10.952Z,4.82
2022-07-31T06:58:38.915Z,4.85
2022-07-31T07:01:06.434Z,4.47
2022-07-31T07:03:35.309Z,4.38
2022-07-31T07:06:03.480Z,5.05
2022-07-31T07:08:30.968Z,4.50
2022-07-31T07:10:58.661Z,4.70
2022-07-31T07:13:45.325Z,4.63
2022-07-31T07:16:14.160Z,4.25
2022-07-31T07:18:43.445Z,4.18
2022-07-31T07:21:11.432Z,4.15
2022-07-31T07:23:38.959Z,4.28
2022-07-31T07:26:06.732Z,3.80
2022-07-31T07:28:34.299Z,3.20
2022-07-31T07:31:03.255Z,3.10
2022-07-31T07:33:41.044Z,3.00
2022-07-31T07:36:24.146Z,2.70
2022-07-31T07:38:53.433Z,2.42
2022-07-31T07:41:21.287Z,2.90
2022-07-31T07:43:51.738Z,2.60
2022-07-31T07:46:20.564Z,2.65
2022-07-31T07:48:49.176Z,2.63
2022-07-31T07:51:18.239Z,2.65
2022-07-31T07:53:45.706Z,2.60
2022-07-31T07:56:13.332Z,2.60
2022-07-31T07:58:40.963Z,2.60
2022-07-31T08:01:08.877Z,2.38
2022-07-31T08:03:49.598Z,2.20
2022-07-31T08:06:21.070Z,2.28
2022-07-31T08:08:48.541Z,2.58
2022-07-31T08:11:17.156Z,2.58
2022-07-31T08:13:50.142Z,2.65
2022-07-31T08:16:18.472Z,2.35
2022-07-31T08:18:45.975Z,2.38
2022-07-31T08:21:13.562Z,2.70
2022-07-31T08:23:42.425Z,2.33
2022-07-31T08:26:09.997Z,2.20
2022-07-31T08:28:39.146Z,2.15
2022-07-31T08:31:06.860Z,2.20
2022-07-31T08:33:34.372Z,2.40
2022-07-31T08:36:02.439Z,2.45
2022-07-31T08:38:29.984Z,2.42
2022-07-31T08:40:58.861Z,2.00
2022-07-31T08:44:02.930Z,2.67
2022-07-31T08:46:15.007Z,2.22
2022-07-31T08:48:43.155Z,2.25
2022-07-31T08:51:12.120Z,2.20
2022-07-31T08:53:40.475Z,2.15
2022-07-31T08:56:09.578Z,2.00
2022-07-31T08:58:39.712Z,1.90
2022-07-31T09:01:08.337Z,2.00
2022-07-31T09:03:36.309Z,2.10
2022-07-31T09:06:03.936Z,2.60
2022-07-31T09:08:32.546Z,2.50
2022-07-31T09:11:06.077Z,1.85
2022-07-31T09:13:35.821Z,2.47
2022-07-31T09:16:03.769Z,1.90
2022-07-31T09:18:31.485Z,1.92
2022-07-31T09:21:00.478Z,1.60
2022-07-31T09:23:30.217Z,2.25
2022-07-31T09:25:58.295Z,1.67
2022-07-31T09:28:37.577Z,1.90
2022-07-31T09:31:05.793Z,1.80
2022-07-31T09:33:33.964Z,1.83
2022-07-31T09:36:01.493Z,1.92
2022-07-31T09:38:33.212Z,1.92
2022-07-31T09:41:16.640Z,1.70
2022-07-31T09:44:00.991Z,1.60
2022-07-31T09:46:28.631Z,1.70
2022-07-31T09:49:00.141Z,1.83
2022-07-31T09:51:38.323Z,1.92
2022-07-31T09:54:06.033Z,1.88
2022-07-31T09:56:34.130Z,2.10
2022-07-31T09:59:03.443Z,1.60
2022-07-31T10:01:32.009Z,1.60
2022-07-31T10:04:01.217Z,2.00
2022-07-31T10:06:30.213Z,2.05
2022-07-31T10:08:58.116Z,1.70
2022-07-31T10:11:26.029Z,1.80
2022-07-31T10:13:57.494Z,1.73
2022-07-31T10:16:28.310Z,1.50
2022-07-31T10:18:58.899Z,1.80
2022-07-31T10:21:29.055Z,1.75
2022-07-31T10:23:57.283Z,1.85
2022-07-31T10:26:50.304Z,2.05
2022-07-31T10:29:12.828Z,1.90
2022-07-31T10:31:41.741Z,1.92
2022-07-31T10:34:09.195Z,1.92
2022-07-31T10:36:38.305Z,1.95
2022-07-31T10:39:09.609Z,1.80
2022-07-31T10:41:45.218Z,2.00
2022-07-31T10:44:13.783Z,2.05
2022-07-31T10:46:42.672Z,1.90
2022-07-31T10:49:10.210Z,2.38
2022-07-31T10:51:46.778Z,1.88
2022-07-31T10:54:15.572Z,2.08
2022-07-31T10:56:43.956Z,2.08
2022-07-31T10:59:12.185Z,1.90
2022-07-31T11:01:53.059Z,1.75
2022-07-31T11:04:27.321Z,1.83
2022-07-31T11:06:54.808Z,1.90
2022-07-31T11:09:25.445Z,1.70
2022-07-31T11:11:53.209Z,1.95
2022-07-31T11:14:31.624Z,1.92
2022-07-31T11:17:00.763Z,1.90
2022-07-31T11:19:40.873Z,1.92
2022-07-31T11:22:30.459Z,2.30
2022-07-31T11:25:00.695Z,1.80
2022-07-31T11:27:31.984Z,1.80
2022-07-31T11:30:07.798Z,1.90
2022-07-31T11:32:39.983Z,2.30
2022-07-31T11:35:07.937Z,1.58
2022-07-31T11:37:56.419Z,1.80
2022-07-31T11:40:27.394Z,2.13
2022-07-31T11:43:24.256Z,2.08
2022-07-31T11:45:47.082Z,1.92
2022-07-31T11:48:18.968Z,2.00
2022-07-31T11:50:46.996Z,1.63
2022-07-31T11:53:14.444Z,1.70
2022-07-31T11:55:45.930Z,1.73
2022-07-31T11:58:13.488Z,1.83
2022-07-31T12:00:46.660Z,1.77
2022-07-31T12:03:14.298Z,1.75
2022-07-31T12:05:46.372Z,2.35
2022-07-31T12:08:14.487Z,1.92
2022-07-31T12:10:42.435Z,1.88
2022-07-31T12:13:16.056Z,1.70
2022-07-31T12:15:54.504Z,1.90
2022-07-31T12:18:22.012Z,1.77
2022-07-31T12:20:54.409Z,1.77
2022-07-31T12:23:40.571Z,2.05
2022-07-31T12:26:09.471Z,2.00
2022-07-31T12:28:37.007Z,2.00
2022-07-31T12:31:04.630Z,1.42
2022-07-31T12:33:40.982Z,1.75
2022-07-31T12:36:13.703Z,1.70
2022-07-31T12:38:48.511Z,2.10
2022-07-31T12:41:16.515Z,1.95
2022-07-31T12:43:51.338Z,1.70
2022-07-31T12:46:20.928Z,1.75
2022-07-31T12:48:48.449Z,1.73
2022-07-31T12:51:21.222Z,1.98
2022-07-31T12:54:07.883Z,1.80
2022-07-31T12:56:35.590Z,2.25
2022-07-31T12:59:03.232Z,1.98
2022-07-31T13:01:30.968Z,2.00
2022-07-31T13:03:59.359Z,2.30
2022-07-31T13:06:29.918Z,2.00
2022-07-31T13:08:57.455Z,2.10
2022-07-31T13:11:26.048Z,1.85
2022-07-31T13:13:56.783Z,1.80
2022-07-31T13:16:24.311Z,2.20
2022-07-31T13:18:51.862Z,1.85
2022-07-31T13:21:19.355Z,1.77
2022-07-31T13:23:48.188Z,1.83
2022-07-31T13:26:15.721Z,1.60
2022-07-31T13:28:43.233Z,1.50
2022-07-31T13:31:10.712Z,1.63
2022-07-31T13:33:38.251Z,1.42
2022-07-31T13:36:06.475Z,1.60
2022-07-31T13:38:33.936Z,1.38
2022-07-31T13:41:20.288Z,1.67
2022-07-31T13:44:00.109Z,1.50
2022-07-31T13:46:28.660Z,1.50
2022-07-31T13:48:58.803Z,1.52
2022-07-31T13:51:28.877Z,1.50
2022-07-31T13:53:56.620Z,1.42
2022-07-31T13:56:42.324Z,1.40
2022-07-31T13:59:11.449Z,1.42
2022-07-31T14:02:13.503Z,1.27
2022-07-31T14:04:30.342Z,1.20
2022-07-31T14:07:00.868Z,1.30
2022-07-31T14:09:28.651Z,1.65
2022-07-31T14:11:57.475Z,1.45
2022-07-31T14:14:25.157Z,1.30
2022-07-31T14:16:52.697Z,1.70
2022-07-31T14:19:20.878Z,1.23
2022-07-31T14:21:50.003Z,1.42
2022-07-31T14:26:51.573Z,1.13
2022-07-31T14:29:20.562Z,1.27
2022-07-31T14:31:48.061Z,1.27
2022-07-31T14:34:15.564Z,1.42
2022-07-31T14:36:43.071Z,1.27
2022-07-31T14:39:10.559Z,1.40
2022-07-31T14:41:38.012Z,1.23
2022-07-31T14:44:05.658Z,1.27
2022-07-31T14:46:35.455Z,1.40
2022-07-31T14:49:04.448Z,1.50
2022-07-31T14:51:32.013Z,1.38
2022-07-31T14:53:59.626Z,1.58
2022-07-31T14:56:45.445Z,1.40
2022-07-31T14:59:14.854Z,1.58
2022-07-31T15:01:43.706Z,1.30
2022-07-31T15:04:11.253Z,1.50
2022-07-31T15:06:52.852Z,1.55
2022-07-31T15:09:23.354Z,1.75
2022-07-31T15:11:59.510Z,1.20
2022-07-31T15:14:28.918Z,1.60
2022-07-31T15:16:57.715Z,1.50
2022-07-31T15:19:25.328Z,1.38
2022-07-31T15:22:16.140Z,1.60
2022-07-31T15:24:45.544Z,1.83
2022-07-31T15:27:16.945Z,1.50
2022-07-31T15:30:04.048Z,1.52
2022-07-31T15:32:33.266Z,1.60
2022-07-31T15:35:00.776Z,1.33
2022-07-31T15:37:28.385Z,1.05
2022-07-31T15:40:02.145Z,1.52
2022-07-31T15:42:31.052Z,1.30
2022-07-31T15:44:58.511Z,1.33
2022-07-31T15:47:26.153Z,1.30
2022-07-31T15:49:55.080Z,1.48
2022-07-31T15:52:22.669Z,1.27
2022-07-31T15:54:51.816Z,1.50
2022-07-31T15:59:47.254Z,1.42
2022-07-31T16:02:14.928Z,1.33
2022-07-31T16:04:46.450Z,1.45
2022-07-31T16:08:31.203Z,1.10
2022-07-31T16:12:43.575Z,1.38
2022-07-31T16:15:12.222Z,1.30
2022-07-31T16:17:39.817Z,1.30
2022-07-31T16:20:08.698Z,1.10
2022-07-31T16:22:37.759Z,1.42
2022-07-31T16:25:06.360Z,1.10
2022-07-31T16:27:33.924Z,1.10
2022-07-31T16:30:02.626Z,1.40
2022-07-31T16:32:31.216Z,1.50
2022-07-31T16:35:01.390Z,1.30
2022-07-31T16:37:50.165Z,1.27
2022-07-31T16:40:30.104Z,1.30
2022-07-31T16:43:00.777Z,1.30
2022-07-31T16:45:28.571Z,1.20
2022-07-31T16:47:56.007Z,1.10
2022-07-31T16:50:23.659Z,1.48
2022-07-31T16:52:54.647Z,1.48
2022-07-31T16:55:59.859Z,1.90
2022-07-31T16:58:11.925Z,1.80
2022-07-31T17:00:39.827Z,1.17
2022-07-31T17:03:58.716Z,1.35
2022-07-31T17:05:55.560Z,1.20
2022-07-31T17:08:23.059Z,1.10
2022-07-31T17:10:54.665Z,0.95
2022-07-31T17:13:22.607Z,1.40
2022-07-31T17:15:50.172Z,1.50
2022-07-31T17:18:17.719Z,1.10
2022-07-31T17:20:47.968Z,1.55
2022-07-31T17:23:15.796Z,1.63
2022-07-31T17:25:43.448Z,1.35
2022-07-31T17:28:15.362Z,1.20
2022-07-31T17:30:44.898Z,1.40
2022-07-31T17:33:12.605Z,1.35
2022-07-31T17:35:40.064Z,1.63
2022-07-31T17:38:07.548Z,1.35
2022-07-31T17:40:44.132Z,1.40
2022-07-31T17:43:13.442Z,1.35
2022-07-31T17:45:59.273Z,1.35
2022-07-31T17:48:28.636Z,1.40
2022-07-31T17:50:56.104Z,1.45
2022-07-31T17:53:23.656Z,1.30
2022-07-31T17:55:58.803Z,1.50
2022-07-31T17:58:27.695Z,1.33
2022-07-31T18:00:55.561Z,1.42
2022-07-31T18:03:23.438Z,1.85
2022-07-31T18:05:50.935Z,2.03
2022-07-31T18:08:18.383Z,1.50
2022-07-31T18:10:54.410Z,2.53
2022-07-31T18:15:51.495Z,2.08
2022-07-31T18:18:19.154Z,2.30
2022-07-31T18:20:46.665Z,2.50
2022-07-31T18:23:14.463Z,3.08
2022-07-31T18:25:42.754Z,2.92
2022-07-31T18:28:10.316Z,2.75
2022-07-31T18:30:40.956Z,4.13
2022-07-31T18:33:10.843Z,3.55
2022-07-31T18:35:38.301Z,1.80
2022-07-31T18:38:05.808Z,2.13
2022-07-31T18:40:33.422Z,2.50
2022-07-31T18:43:00.973Z,1.80
2022-07-31T18:45:28.729Z,1.20
2022-07-31T18:47:56.296Z,1.30
2022-07-31T18:50:58.983Z,1.48
2022-07-31T18:53:13.204Z,1.70
2022-07-31T18:55:40.763Z,1.65
2022-07-31T18:58:09.157Z,2.10
2022-07-31T19:00:36.736Z,1.98
2022-07-31T19:03:05.196Z,2.38
2022-07-31T19:05:34.059Z,1.73
2022-07-31T19:08:01.591Z,1.30
2022-07-31T19:10:31.160Z,1.60
2022-07-31T19:15:26.549Z,1.70
2022-07-31T19:17:54.852Z,1.92
2022-07-31T19:20:53.851Z,2.13
2022-07-31T19:23:17.017Z,2.20
2022-07-31T19:25:55.710Z,3.00
2022-07-31T19:28:30.847Z,2.33
2022-07-31T19:30:58.655Z,2.72
2022-07-31T19:33:26.209Z,3.67
2022-07-31T19:36:00.335Z,2.95
2022-07-31T19:38:30.701Z,3.00
2022-07-31T19:40:58.165Z,3.95
2022-07-31T19:43:25.756Z,3.05
2022-07-31T19:46:02.543Z,2.40
2022-07-31T19:48:40.538Z,2.80
2022-07-31T19:51:08.295Z,2.45
2022-07-31T19:53:37.344Z,4.60
2022-07-31T19:56:06.321Z,2.53
2022-07-31T19:58:34.726Z,2.70
2022-07-31T20:01:02.540Z,3.30
2022-07-31T20:03:30.130Z,2.70
2022-07-31T20:05:58.225Z,2.70
2022-07-31T20:08:25.809Z,2.80
2022-07-31T20:10:57.101Z,4.10
2022-07-31T20:15:53.158Z,3.05
2022-07-31T20:18:27.440Z,3.95
2022-07-31T20:20:57.213Z,3.85
2022-07-31T20:23:24.989Z,3.00
2022-07-31T20:25:52.467Z,3.33
2022-07-31T20:28:21.432Z,2.70
2022-07-31T20:30:49.108Z,9.63
2022-07-31T20:33:16.562Z,11.40
2022-07-31T20:35:47.657Z,8.50
2022-07-31T20:38:17.413Z,4.40
2022-07-31T20:40:53.940Z,3.05
2022-07-31T20:43:24.848Z,6.10
2022-07-31T20:45:52.393Z,2.30
2022-07-31T20:48:21.838Z,4.15
2022-07-31T20:50:49.408Z,3.72
2022-07-31T20:53:16.919Z,6.20
2022-07-31T20:55:46.977Z,3.33
2022-07-31T20:58:14.673Z,3.80
2022-07-31T21:00:43.516Z,3.30
2022-07-31T21:03:11.045Z,2.50
2022-07-31T21:05:38.586Z,3.90
2022-07-31T21:08:06.152Z,2.55
2022-07-31T21:10:34.148Z,2.25
2022-07-31T21:13:01.643Z,2.53
2022-07-31T21:15:43.129Z,2.58
2022-07-31T21:18:13.864Z,2.47
2022-07-31T21:20:52.177Z,2.40
2022-07-31T21:23:21.328Z,2.40
2022-07-31T21:25:48.962Z,2.63
2022-07-31T21:28:16.746Z,2.45
2022-07-31T21:30:44.438Z,2.40
2022-07-31T21:33:12.127Z,2.75
2022-07-31T21:35:41.292Z,2.30
2022-07-31T21:38:11.991Z,1.80
2022-07-31T21:40:40.646Z,2.42
2022-07-31T21:43:08.415Z,2.63
2022-07-31T21:45:50.702Z,3.10
2022-07-31T21:48:24.761Z,2.60
2022-07-31T21:50:54.637Z,2.20
2022-07-31T21:53:22.157Z,2.78
2022-07-31T21:55:49.926Z,2.17
2022-07-31T21:58:17.989Z,2.30
2022-07-31T22:00:45.681Z,2.40
2022-07-31T22:03:13.251Z,2.50
2022-07-31T22:05:58.312Z,2.50
2022-07-31T22:08:27.197Z,2.70
2022-07-31T22:10:54.759Z,2.60
2022-07-31T22:13:22.331Z,2.10
2022-07-31T22:15:51.407Z,2.03
2022-07-31T22:18:27.260Z,2.13
2022-07-31T22:20:54.837Z,2.20
2022-07-31T22:23:23.842Z,1.80
2022-07-31T22:25:52.750Z,1.80
2022-07-31T22:28:21.531Z,1.67
2022-07-31T22:30:49.375Z,1.90
2022-07-31T22:33:17.179Z,1.38
2022-07-31T22:35:44.838Z,1.55
2022-07-31T22:38:27.425Z,1.52
2022-07-31T22:40:56.364Z,1.40
2022-07-31T22:44:14.159Z,1.35
2022-07-31T22:46:12.889Z,1.38
2022-07-31T22:48:41.195Z,1.40
2022-07-31T22:51:10.817Z,1.45
2022-07-31T22:53:42.059Z,1.63
2022-07-31T22:56:10.895Z,1.38
2022-07-31T22:58:38.389Z,1.40
2022-07-31T23:01:05.977Z,1.60
2022-07-31T23:03:33.501Z,1.35
2022-07-31T23:06:03.633Z,1.67
2022-07-31T23:08:50.757Z,1.67
2022-07-31T23:11:22.735Z,1.40
2022-07-31T23:13:50.255Z,1.42
2022-07-31T23:16:17.727Z,1.58
2022-07-31T23:18:45.207Z,1.40
2022-07-31T23:21:12.861Z,1.77
2022-07-31T23:23:40.347Z,1.60
2022-07-31T23:26:07.844Z,2.00
2022-07-31T23:28:36.718Z,1.83
2022-07-31T23:31:04.237Z,2.03
2022-07-31T23:33:31.737Z,2.28
2022-07-31T23:36:00.849Z,2.08
2022-07-31T23:38:28.397Z,2.20
2022-07-31T23:40:56.339Z,1.98
2022-07-31T23:43:22.837Z,2.08
2022-07-31T23:45:51.731Z,2.10
2022-07-31T23:48:19.800Z,2.22
2022-07-31T23:50:48.859Z,2.17
2022-07-31T23:53:16.558Z,2.30
2022-07-31T23:55:44.061Z,2.05
2022-07-31T23:58:12.376Z,2.08
